Terminal Aerodrome Forecast
Issued by NWS Tallahassee, FL

Home | Current Version | Previous Version | Text Only | Print | Product List | Glossary On
Versions: 1 2 3 4 5 6 7 8 9 10 11 12
016
FTUS42 KTAE 231726
TAFTLH
TAF
KTLH 231726Z 2318/2418 21012G18KT P6SM BKN040
     FM232200 25010G20KT 3SM TSRA BKN025CB
     FM240100 29006KT P6SM BKN040=

USA.gov is the U.S. government's official web portal to all federal, state and local government web resources and services.